sensor_id;sensor_type;location;lat;lon;timestamp;temperature;humidity
27439;DHT22;14887;51.252;7.470;2024-03-29T00:00:56;5.30;99.90
27439;DHT22;14887;51.252;7.470;2024-03-29T00:03:21;5.30;99.90
27439;DHT22;14887;51.252;7.470;2024-03-29T00:05:47;5.30;99.90
27439;DHT22;14887;51.252;7.470;2024-03-29T00:08:13;5.30;99.90
27439;DHT22;14887;51.252;7.470;2024-03-29T00:10:38;5.20;99.90
27439;DHT22;14887;51.252;7.470;2024-03-29T00:13:04;5.20;99.90
27439;DHT22;14887;51.252;7.470;2024-03-29T00:15:32;5.20;99.90
27439;DHT22;14887;51.252;7.470;2024-03-29T00:17:57;5.20;99.90
27439;DHT22;14887;51.252;7.470;2024-03-29T00:20:23;5.10;99.90
27439;DHT22;14887;51.252;7.470;2024-03-29T00:22:49;5.10;99.90
27439;DHT22;14887;51.252;7.470;2024-03-29T00:25:15;5.00;99.90
27439;DHT22;14887;51.252;7.470;2024-03-29T00:27:40;5.10;99.90
27439;DHT22;14887;51.252;7.470;2024-03-29T00:30:06;5.10;99.90
27439;DHT22;14887;51.252;7.470;2024-03-29T00:32:32;5.00;99.90
27439;DHT22;14887;51.252;7.470;2024-03-29T00:34:57;5.00;99.90
27439;DHT22;14887;51.252;7.470;2024-03-29T00:37:23;5.10;99.90
27439;DHT22;14887;51.252;7.470;2024-03-29T00:39:49;5.00;99.90
27439;DHT22;14887;51.252;7.470;2024-03-29T00:42:15;5.10;99.90
27439;DHT22;14887;51.252;7.470;2024-03-29T00:44:42;5.00;99.90
27439;DHT22;14887;51.252;7.470;2024-03-29T00:47:08;5.00;99.90
27439;DHT22;14887;51.252;7.470;2024-03-29T00:49:34;5.10;99.90
27439;DHT22;14887;51.252;7.470;2024-03-29T00:52:00;5.10;99.90
27439;DHT22;14887;51.252;7.470;2024-03-29T00:54:26;5.20;99.90
27439;DHT22;14887;51.252;7.470;2024-03-29T00:56:52;5.20;99.90
27439;DHT22;14887;51.252;7.470;2024-03-29T00:59:18;5.20;99.90
27439;DHT22;14887;51.252;7.470;2024-03-29T01:01:44;5.30;99.90
27439;DHT22;14887;51.252;7.470;2024-03-29T01:04:10;5.30;99.90
27439;DHT22;14887;51.252;7.470;2024-03-29T01:06:36;5.30;99.90
27439;DHT22;14887;51.252;7.470;2024-03-29T01:09:02;5.20;99.90
27439;DHT22;14887;51.252;7.470;2024-03-29T01:11:29;5.30;99.90
27439;DHT22;14887;51.252;7.470;2024-03-29T01:13:54;5.30;99.90
27439;DHT22;14887;51.252;7.470;2024-03-29T01:16:20;5.30;99.90
27439;DHT22;14887;51.252;7.470;2024-03-29T01:18:46;5.30;99.90
27439;DHT22;14887;51.252;7.470;2024-03-29T01:21:13;5.40;99.90
27439;DHT22;14887;51.252;7.470;2024-03-29T01:23:38;5.40;99.90
27439;DHT22;14887;51.252;7.470;2024-03-29T01:26:05;5.50;99.90
27439;DHT22;14887;51.252;7.470;2024-03-29T01:28:31;5.60;99.90
27439;DHT22;14887;51.252;7.470;2024-03-29T01:30:56;5.60;99.90
27439;DHT22;14887;51.252;7.470;2024-03-29T01:33:24;5.70;99.90
27439;DHT22;14887;51.252;7.470;2024-03-29T01:35:49;5.70;99.90
27439;DHT22;14887;51.252;7.470;2024-03-29T01:38:15;5.70;99.90
27439;DHT22;14887;51.252;7.470;2024-03-29T01:40:41;5.80;99.90
27439;DHT22;14887;51.252;7.470;2024-03-29T01:43:06;5.80;99.90
27439;DHT22;14887;51.252;7.470;2024-03-29T01:45:35;5.80;94.70
27439;DHT22;14887;51.252;7.470;2024-03-29T01:48:01;5.90;89.50
27439;DHT22;14887;51.252;7.470;2024-03-29T01:50:26;5.90;88.30
27439;DHT22;14887;51.252;7.470;2024-03-29T01:52:52;5.90;77.40
27439;DHT22;14887;51.252;7.470;2024-03-29T01:55:18;6.00;60.80
27439;DHT22;14887;51.252;7.470;2024-03-29T01:57:44;6.00;52.50
27439;DHT22;14887;51.252;7.470;2024-03-29T02:00:10;6.00;67.80
27439;DHT22;14887;51.252;7.470;2024-03-29T02:02:36;6.00;42.90
27439;DHT22;14887;51.252;7.470;2024-03-29T02:05:02;6.00;48.70
27439;DHT22;14887;51.252;7.470;2024-03-29T02:07:30;6.00;22.40
27439;DHT22;14887;51.252;7.470;2024-03-29T02:09:56;6.10;27.10
27439;DHT22;14887;51.252;7.470;2024-03-29T02:12:21;6.10;18.50
27439;DHT22;14887;51.252;7.470;2024-03-29T02:14:47;6.10;26.20
27439;DHT22;14887;51.252;7.470;2024-03-29T02:17:12;6.10;8.50
27439;DHT22;14887;51.252;7.470;2024-03-29T02:19:38;6.20;17.10
27439;DHT22;14887;51.252;7.470;2024-03-29T02:22:05;6.10;34.90
27439;DHT22;14887;51.252;7.470;2024-03-29T02:24:31;6.10;99.90
27439;DHT22;14887;51.252;7.470;2024-03-29T02:26:57;6.10;99.90
27439;DHT22;14887;51.252;7.470;2024-03-29T02:29:24;6.10;99.90
27439;DHT22;14887;51.252;7.470;2024-03-29T02:31:51;6.20;99.90
27439;DHT22;14887;51.252;7.470;2024-03-29T02:34:16;6.40;99.90
27439;DHT22;14887;51.252;7.470;2024-03-29T02:36:43;6.40;97.20
27439;DHT22;14887;51.252;7.470;2024-03-29T02:39:09;6.30;59.20
27439;DHT22;14887;51.252;7.470;2024-03-29T02:41:35;6.30;87.00
27439;DHT22;14887;51.252;7.470;2024-03-29T02:44:01;6.20;76.30
27439;DHT22;14887;51.252;7.470;2024-03-29T02:46:26;6.20;91.20
27439;DHT22;14887;51.252;7.470;2024-03-29T02:48:52;6.20;99.90
27439;DHT22;14887;51.252;7.470;2024-03-29T02:51:17;6.20;87.70
27439;DHT22;14887;51.252;7.470;2024-03-29T02:53:43;6.30;66.20
27439;DHT22;14887;51.252;7.470;2024-03-29T02:56:09;6.30;51.40
27439;DHT22;14887;51.252;7.470;2024-03-29T02:58:36;6.40;78.50
27439;DHT22;14887;51.252;7.470;2024-03-29T03:01:08;6.40;99.90
27439;DHT22;14887;51.252;7.470;2024-03-29T03:03:35;6.30;99.90
27439;DHT22;14887;51.252;7.470;2024-03-29T03:06:01;6.20;99.90
27439;DHT22;14887;51.252;7.470;2024-03-29T03:08:29;6.10;99.90
27439;DHT22;14887;51.252;7.470;2024-03-29T03:11:13;6.10;99.90
27439;DHT22;14887;51.252;7.470;2024-03-29T03:13:39;6.00;99.90
27439;DHT22;14887;51.252;7.470;2024-03-29T03:16:07;6.00;99.90
27439;DHT22;14887;51.252;7.470;2024-03-29T03:18:33;6.00;99.90
27439;DHT22;14887;51.252;7.470;2024-03-29T03:20:59;6.00;99.90
27439;DHT22;14887;51.252;7.470;2024-03-29T03:23:25;6.00;99.90
27439;DHT22;14887;51.252;7.470;2024-03-29T03:25:54;5.90;1.00
27439;DHT22;14887;51.252;7.470;2024-03-29T03:28:21;5.90;1.00
27439;DHT22;14887;51.252;7.470;2024-03-29T03:30:47;6.00;1.00
27439;DHT22;14887;51.252;7.470;2024-03-29T03:33:13;6.00;1.00
27439;DHT22;14887;51.252;7.470;2024-03-29T03:35:39;6.00;1.00
27439;DHT22;14887;51.252;7.470;2024-03-29T03:38:05;5.90;1.00
27439;DHT22;14887;51.252;7.470;2024-03-29T03:40:30;5.90;1.00
27439;DHT22;14887;51.252;7.470;2024-03-29T03:42:56;6.00;99.90
27439;DHT22;14887;51.252;7.470;2024-03-29T03:45:22;6.00;99.90
27439;DHT22;14887;51.252;7.470;2024-03-29T03:47:48;6.10;99.90
27439;DHT22;14887;51.252;7.470;2024-03-29T03:50:13;6.20;99.90
27439;DHT22;14887;51.252;7.470;2024-03-29T03:52:39;6.20;99.90
27439;DHT22;14887;51.252;7.470;2024-03-29T03:55:06;6.20;99.90
27439;DHT22;14887;51.252;7.470;2024-03-29T03:57:31;6.20;99.90
27439;DHT22;14887;51.252;7.470;2024-03-29T03:59:59;6.20;99.90
27439;DHT22;14887;51.252;7.470;2024-03-29T04:02:25;6.20;99.90
27439;DHT22;14887;51.252;7.470;2024-03-29T04:04:50;6.10;99.90
27439;DHT22;14887;51.252;7.470;2024-03-29T04:07:16;6.10;99.90
27439;DHT22;14887;51.252;7.470;2024-03-29T04:09:43;6.10;99.90
27439;DHT22;14887;51.252;7.470;2024-03-29T04:12:09;6.10;99.90
27439;DHT22;14887;51.252;7.470;2024-03-29T04:14:35;6.00;99.90
27439;DHT22;14887;51.252;7.470;2024-03-29T04:17:00;6.00;99.90
27439;DHT22;14887;51.252;7.470;2024-03-29T04:19:26;6.00;99.90
27439;DHT22;14887;51.252;7.470;2024-03-29T04:21:52;6.00;99.90
27439;DHT22;14887;51.252;7.470;2024-03-29T04:24:19;6.00;99.90
27439;DHT22;14887;51.252;7.470;2024-03-29T04:26:44;5.90;1.00
27439;DHT22;14887;51.252;7.470;2024-03-29T04:29:13;5.90;1.00
27439;DHT22;14887;51.252;7.470;2024-03-29T04:31:45;5.80;1.00
27439;DHT22;14887;51.252;7.470;2024-03-29T04:34:11;5.70;99.90
27439;DHT22;14887;51.252;7.470;2024-03-29T04:36:37;5.70;99.90
27439;DHT22;14887;51.252;7.470;2024-03-29T04:39:02;5.70;99.90
27439;DHT22;14887;51.252;7.470;2024-03-29T04:41:28;5.60;1.00
27439;DHT22;14887;51.252;7.470;2024-03-29T04:43:54;5.60;99.90
27439;DHT22;14887;51.252;7.470;2024-03-29T04:46:19;5.50;99.90
27439;DHT22;14887;51.252;7.470;2024-03-29T04:48:45;5.40;1.00
27439;DHT22;14887;51.252;7.470;2024-03-29T04:51:13;5.40;29.30
27439;DHT22;14887;51.252;7.470;2024-03-29T04:53:39;5.40;1.00
27439;DHT22;14887;51.252;7.470;2024-03-29T04:56:05;5.30;99.90
27439;DHT22;14887;51.252;7.470;2024-03-29T04:58:31;5.30;1.00
27439;DHT22;14887;51.252;7.470;2024-03-29T05:00:57;5.20;99.90
27439;DHT22;14887;51.252;7.470;2024-03-29T05:03:24;5.20;1.00
27439;DHT22;14887;51.252;7.470;2024-03-29T05:05:51;5.20;99.90
27439;DHT22;14887;51.252;7.470;2024-03-29T05:08:17;5.20;99.90
27439;DHT22;14887;51.252;7.470;2024-03-29T05:10:44;5.20;1.00
27439;DHT22;14887;51.252;7.470;2024-03-29T05:13:10;5.10;1.00
27439;DHT22;14887;51.252;7.470;2024-03-29T05:15:36;5.10;1.00
27439;DHT22;14887;51.252;7.470;2024-03-29T05:18:04;5.00;99.90
27439;DHT22;14887;51.252;7.470;2024-03-29T05:20:32;5.00;99.90
27439;DHT22;14887;51.252;7.470;2024-03-29T05:22:58;5.00;99.90
27439;DHT22;14887;51.252;7.470;2024-03-29T05:25:24;4.90;99.90
27439;DHT22;14887;51.252;7.470;2024-03-29T05:27:53;5.00;99.90
27439;DHT22;14887;51.252;7.470;2024-03-29T05:30:19;5.00;99.90
27439;DHT22;14887;51.252;7.470;2024-03-29T05:32:48;4.90;1.00
27439;DHT22;14887;51.252;7.470;2024-03-29T05:35:13;4.90;1.00
27439;DHT22;14887;51.252;7.470;2024-03-29T05:37:40;4.90;1.00
27439;DHT22;14887;51.252;7.470;2024-03-29T05:40:07;4.90;1.00
27439;DHT22;14887;51.252;7.470;2024-03-29T05:42:33;5.00;1.00
27439;DHT22;14887;51.252;7.470;2024-03-29T05:45:02;5.00;1.00
27439;DHT22;14887;51.252;7.470;2024-03-29T05:47:33;5.00;1.00
27439;DHT22;14887;51.252;7.470;2024-03-29T05:49:59;5.00;1.00
27439;DHT22;14887;51.252;7.470;2024-03-29T05:52:25;5.00;1.00
27439;DHT22;14887;51.252;7.470;2024-03-29T05:57:16;5.10;1.00
27439;DHT22;14887;51.252;7.470;2024-03-29T05:59:43;5.20;1.00
27439;DHT22;14887;51.252;7.470;2024-03-29T06:02:09;5.20;1.00
27439;DHT22;14887;51.252;7.470;2024-03-29T06:04:35;5.20;1.00
27439;DHT22;14887;51.252;7.470;2024-03-29T06:07:03;5.30;1.00
27439;DHT22;14887;51.252;7.470;2024-03-29T06:09:30;5.30;1.00
27439;DHT22;14887;51.252;7.470;2024-03-29T06:11:56;5.30;1.00
27439;DHT22;14887;51.252;7.470;2024-03-29T06:14:26;5.30;1.00
27439;DHT22;14887;51.252;7.470;2024-03-29T06:17:10;5.30;1.00
27439;DHT22;14887;51.252;7.470;2024-03-29T06:19:54;5.40;1.00
27439;DHT22;14887;51.252;7.470;2024-03-29T06:22:26;5.40;1.00
27439;DHT22;14887;51.252;7.470;2024-03-29T06:24:55;5.40;1.00
27439;DHT22;14887;51.252;7.470;2024-03-29T06:27:24;5.50;1.00
27439;DHT22;14887;51.252;7.470;2024-03-29T06:29:50;5.50;1.00
27439;DHT22;14887;51.252;7.470;2024-03-29T06:32:16;5.60;1.00
27439;DHT22;14887;51.252;7.470;2024-03-29T06:34:46;5.60;1.00
27439;DHT22;14887;51.252;7.470;2024-03-29T06:37:13;5.60;1.00
27439;DHT22;14887;51.252;7.470;2024-03-29T06:39:39;5.60;1.00
27439;DHT22;14887;51.252;7.470;2024-03-29T06:42:05;5.70;1.00
27439;DHT22;14887;51.252;7.470;2024-03-29T06:44:35;5.80;1.00
27439;DHT22;14887;51.252;7.470;2024-03-29T06:47:02;5.80;1.00
27439;DHT22;14887;51.252;7.470;2024-03-29T06:49:30;5.80;1.00
27439;DHT22;14887;51.252;7.470;2024-03-29T06:51:58;5.80;1.00
27439;DHT22;14887;51.252;7.470;2024-03-29T06:54:25;5.90;1.00
27439;DHT22;14887;51.252;7.470;2024-03-29T06:56:56;5.90;1.00
27439;DHT22;14887;51.252;7.470;2024-03-29T06:59:22;5.90;1.00
27439;DHT22;14887;51.252;7.470;2024-03-29T07:01:50;5.90;1.00
27439;DHT22;14887;51.252;7.470;2024-03-29T07:04:19;6.20;1.00
27439;DHT22;14887;51.252;7.470;2024-03-29T07:06:45;6.10;1.00
27439;DHT22;14887;51.252;7.470;2024-03-29T07:09:13;6.30;1.00
27439;DHT22;14887;51.252;7.470;2024-03-29T07:11:40;6.30;1.00
27439;DHT22;14887;51.252;7.470;2024-03-29T07:14:06;6.30;1.00
27439;DHT22;14887;51.252;7.470;2024-03-29T07:16:32;6.40;1.00
27439;DHT22;14887;51.252;7.470;2024-03-29T07:18:57;6.50;1.00
27439;DHT22;14887;51.252;7.470;2024-03-29T07:21:25;6.50;1.00
27439;DHT22;14887;51.252;7.470;2024-03-29T07:26:17;6.60;1.00
27439;DHT22;14887;51.252;7.470;2024-03-29T07:28:42;6.60;1.00
27439;DHT22;14887;51.252;7.470;2024-03-29T07:31:08;6.60;1.00
27439;DHT22;14887;51.252;7.470;2024-03-29T07:33:34;6.60;1.00
27439;DHT22;14887;51.252;7.470;2024-03-29T07:36:00;6.60;1.00
27439;DHT22;14887;51.252;7.470;2024-03-29T07:38:29;6.70;1.00
27439;DHT22;14887;51.252;7.470;2024-03-29T07:40:55;6.80;1.00
27439;DHT22;14887;51.252;7.470;2024-03-29T07:43:22;6.80;1.00
27439;DHT22;14887;51.252;7.470;2024-03-29T07:45:48;6.80;1.00
27439;DHT22;14887;51.252;7.470;2024-03-29T07:48:19;6.90;1.00
27439;DHT22;14887;51.252;7.470;2024-03-29T07:50:45;6.90;1.00
27439;DHT22;14887;51.252;7.470;2024-03-29T07:53:12;7.00;1.00
27439;DHT22;14887;51.252;7.470;2024-03-29T07:55:38;7.00;1.00
27439;DHT22;14887;51.252;7.470;2024-03-29T07:58:05;7.00;1.00
27439;DHT22;14887;51.252;7.470;2024-03-29T08:00:34;7.00;1.00
27439;DHT22;14887;51.252;7.470;2024-03-29T08:03:00;7.00;1.00
27439;DHT22;14887;51.252;7.470;2024-03-29T08:05:27;7.10;1.00
27439;DHT22;14887;51.252;7.470;2024-03-29T08:07:53;7.20;1.00
27439;DHT22;14887;51.252;7.470;2024-03-29T08:10:20;7.30;1.00
27439;DHT22;14887;51.252;7.470;2024-03-29T08:12:46;7.30;1.00
27439;DHT22;14887;51.252;7.470;2024-03-29T08:15:12;7.40;1.00
27439;DHT22;14887;51.252;7.470;2024-03-29T08:17:37;7.50;1.00
27439;DHT22;14887;51.252;7.470;2024-03-29T08:20:04;7.60;1.00
27439;DHT22;14887;51.252;7.470;2024-03-29T08:22:30;7.70;1.00
27439;DHT22;14887;51.252;7.470;2024-03-29T08:24:59;7.80;1.00
27439;DHT22;14887;51.252;7.470;2024-03-29T08:27:25;7.80;1.00
27439;DHT22;14887;51.252;7.470;2024-03-29T08:29:51;7.90;1.00
27439;DHT22;14887;51.252;7.470;2024-03-29T08:32:20;8.00;1.00
27439;DHT22;14887;51.252;7.470;2024-03-29T08:34:46;8.10;1.00
27439;DHT22;14887;51.252;7.470;2024-03-29T08:37:12;8.20;1.00
27439;DHT22;14887;51.252;7.470;2024-03-29T08:39:37;8.20;1.00
27439;DHT22;14887;51.252;7.470;2024-03-29T08:42:04;8.30;1.00
27439;DHT22;14887;51.252;7.470;2024-03-29T08:44:37;8.30;1.00
27439;DHT22;14887;51.252;7.470;2024-03-29T08:47:02;8.20;1.00
27439;DHT22;14887;51.252;7.470;2024-03-29T08:49:28;8.20;1.00
27439;DHT22;14887;51.252;7.470;2024-03-29T08:51:54;8.20;1.00
27439;DHT22;14887;51.252;7.470;2024-03-29T08:54:20;8.30;1.00
27439;DHT22;14887;51.252;7.470;2024-03-29T08:56:45;8.40;1.00
27439;DHT22;14887;51.252;7.470;2024-03-29T08:59:11;8.40;1.00
27439;DHT22;14887;51.252;7.470;2024-03-29T09:01:47;8.40;1.00
27439;DHT22;14887;51.252;7.470;2024-03-29T09:04:16;8.40;1.00
27439;DHT22;14887;51.252;7.470;2024-03-29T09:06:42;8.50;1.00
27439;DHT22;14887;51.252;7.470;2024-03-29T09:09:08;8.50;1.00
27439;DHT22;14887;51.252;7.470;2024-03-29T09:11:34;8.60;1.00
27439;DHT22;14887;51.252;7.470;2024-03-29T09:13:59;8.70;1.00
27439;DHT22;14887;51.252;7.470;2024-03-29T09:16:26;8.80;99.90
27439;DHT22;14887;51.252;7.470;2024-03-29T09:18:53;8.80;99.90
27439;DHT22;14887;51.252;7.470;2024-03-29T09:21:19;8.90;99.90
27439;DHT22;14887;51.252;7.470;2024-03-29T09:23:45;9.00;99.90
27439;DHT22;14887;51.252;7.470;2024-03-29T09:26:11;9.10;99.90
27439;DHT22;14887;51.252;7.470;2024-03-29T09:28:37;9.10;99.90
27439;DHT22;14887;51.252;7.470;2024-03-29T09:31:03;9.00;99.90
27439;DHT22;14887;51.252;7.470;2024-03-29T09:33:29;9.10;99.90
27439;DHT22;14887;51.252;7.470;2024-03-29T09:35:55;9.10;99.90
27439;DHT22;14887;51.252;7.470;2024-03-29T09:38:21;9.20;99.90
27439;DHT22;14887;51.252;7.470;2024-03-29T09:40:51;9.20;99.90
27439;DHT22;14887;51.252;7.470;2024-03-29T09:43:21;9.30;99.90
27439;DHT22;14887;51.252;7.470;2024-03-29T09:45:48;9.30;99.90
27439;DHT22;14887;51.252;7.470;2024-03-29T09:48:14;9.40;99.90
27439;DHT22;14887;51.252;7.470;2024-03-29T09:50:40;9.50;99.90
27439;DHT22;14887;51.252;7.470;2024-03-29T09:53:06;9.80;73.20
27439;DHT22;14887;51.252;7.470;2024-03-29T09:55:33;10.10;1.00
27439;DHT22;14887;51.252;7.470;2024-03-29T09:58:01;10.10;1.00
27439;DHT22;14887;51.252;7.470;2024-03-29T10:00:28;10.40;1.00
27439;DHT22;14887;51.252;7.470;2024-03-29T10:02:56;10.50;99.90
27439;DHT22;14887;51.252;7.470;2024-03-29T10:05:26;10.60;99.90
27439;DHT22;14887;51.252;7.470;2024-03-29T10:07:53;10.50;99.90
27439;DHT22;14887;51.252;7.470;2024-03-29T10:10:19;10.60;99.90
27439;DHT22;14887;51.252;7.470;2024-03-29T10:12:44;10.80;8.00
27439;DHT22;14887;51.252;7.470;2024-03-29T10:15:10;10.90;1.00
27439;DHT22;14887;51.252;7.470;2024-03-29T10:17:45;11.10;1.00
27439;DHT22;14887;51.252;7.470;2024-03-29T10:20:11;11.30;1.00
27439;DHT22;14887;51.252;7.470;2024-03-29T10:22:42;11.40;99.90
27439;DHT22;14887;51.252;7.470;2024-03-29T10:25:08;11.30;99.90
27439;DHT22;14887;51.252;7.470;2024-03-29T10:27:34;11.30;99.90
27439;DHT22;14887;51.252;7.470;2024-03-29T10:29:59;11.20;99.90
27439;DHT22;14887;51.252;7.470;2024-03-29T10:32:25;11.30;99.90
27439;DHT22;14887;51.252;7.470;2024-03-29T10:34:50;11.30;99.90
27439;DHT22;14887;51.252;7.470;2024-03-29T10:37:18;11.40;99.90
27439;DHT22;14887;51.252;7.470;2024-03-29T10:39:52;11.50;99.90
27439;DHT22;14887;51.252;7.470;2024-03-29T10:42:19;11.70;98.30
27439;DHT22;14887;51.252;7.470;2024-03-29T10:44:48;11.80;1.00
27439;DHT22;14887;51.252;7.470;2024-03-29T10:47:19;11.90;1.00
27439;DHT22;14887;51.252;7.470;2024-03-29T10:49:49;12.10;1.00
27439;DHT22;14887;51.252;7.470;2024-03-29T10:52:17;11.90;1.00
27439;DHT22;14887;51.252;7.470;2024-03-29T10:54:47;11.90;1.00
27439;DHT22;14887;51.252;7.470;2024-03-29T10:57:26;12.00;1.00
27439;DHT22;14887;51.252;7.470;2024-03-29T11:05:23;12.20;1.00
27439;DHT22;14887;51.252;7.470;2024-03-29T11:07:50;12.30;1.00
27439;DHT22;14887;51.252;7.470;2024-03-29T11:10:25;12.40;99.90
27439;DHT22;14887;51.252;7.470;2024-03-29T11:15:41;12.60;1.00
27439;DHT22;14887;51.252;7.470;2024-03-29T11:18:09;12.70;99.90
27439;DHT22;14887;51.252;7.470;2024-03-29T11:20:36;12.50;99.90
27439;DHT22;14887;51.252;7.470;2024-03-29T11:23:11;12.20;99.90
27439;DHT22;14887;51.252;7.470;2024-03-29T11:25:39;11.80;99.90
27439;DHT22;14887;51.252;7.470;2024-03-29T11:28:13;11.50;1.00
27439;DHT22;14887;51.252;7.470;2024-03-29T11:33:08;11.20;99.90
27439;DHT22;14887;51.252;7.470;2024-03-29T11:35:39;11.00;99.90
27439;DHT22;14887;51.252;7.470;2024-03-29T11:38:05;10.90;1.00
27439;DHT22;14887;51.252;7.470;2024-03-29T11:40:30;10.90;1.00
27439;DHT22;14887;51.252;7.470;2024-03-29T11:42:56;11.00;1.00
27439;DHT22;14887;51.252;7.470;2024-03-29T11:45:25;11.30;1.00
27439;DHT22;14887;51.252;7.470;2024-03-29T11:47:55;11.40;99.90
27439;DHT22;14887;51.252;7.470;2024-03-29T11:50:21;11.60;99.90
27439;DHT22;14887;51.252;7.470;2024-03-29T11:52:47;11.90;89.00
27439;DHT22;14887;51.252;7.470;2024-03-29T11:55:12;12.00;1.00
27439;DHT22;14887;51.252;7.470;2024-03-29T11:57:38;12.20;1.00
27439;DHT22;14887;51.252;7.470;2024-03-29T12:00:06;12.40;1.00
27439;DHT22;14887;51.252;7.470;2024-03-29T12:02:33;12.50;1.00
27439;DHT22;14887;51.252;7.470;2024-03-29T12:04:58;12.50;1.00
27439;DHT22;14887;51.252;7.470;2024-03-29T12:07:24;12.30;1.00
27439;DHT22;14887;51.252;7.470;2024-03-29T12:09:49;12.10;1.00
27439;DHT22;14887;51.252;7.470;2024-03-29T12:12:15;11.80;1.00
27439;DHT22;14887;51.252;7.470;2024-03-29T12:14:43;11.90;99.90
27439;DHT22;14887;51.252;7.470;2024-03-29T12:17:12;11.70;1.00
27439;DHT22;14887;51.252;7.470;2024-03-29T12:19:38;11.60;99.90
27439;DHT22;14887;51.252;7.470;2024-03-29T12:22:07;11.50;99.90
27439;DHT22;14887;51.252;7.470;2024-03-29T12:24:33;11.40;99.90
27439;DHT22;14887;51.252;7.470;2024-03-29T12:26:59;11.50;21.30
27439;DHT22;14887;51.252;7.470;2024-03-29T12:29:24;11.50;1.00
27439;DHT22;14887;51.252;7.470;2024-03-29T12:31:59;11.60;1.00
27439;DHT22;14887;51.252;7.470;2024-03-29T12:34:25;11.60;1.00
27439;DHT22;14887;51.252;7.470;2024-03-29T12:36:51;11.70;99.90
27439;DHT22;14887;51.252;7.470;2024-03-29T12:39:17;11.90;1.00
27439;DHT22;14887;51.252;7.470;2024-03-29T12:41:42;12.00;99.90
27439;DHT22;14887;51.252;7.470;2024-03-29T12:44:10;12.00;99.90
27439;DHT22;14887;51.252;7.470;2024-03-29T12:46:36;11.90;1.00
27439;DHT22;14887;51.252;7.470;2024-03-29T12:49:02;11.70;1.00
27439;DHT22;14887;51.252;7.470;2024-03-29T12:51:28;11.40;99.90
27439;DHT22;14887;51.252;7.470;2024-03-29T12:54:01;11.00;1.00
27439;DHT22;14887;51.252;7.470;2024-03-29T12:56:29;10.70;1.00
27439;DHT22;14887;51.252;7.470;2024-03-29T12:58:55;10.50;99.90
27439;DHT22;14887;51.252;7.470;2024-03-29T13:01:21;10.30;99.90
27439;DHT22;14887;51.252;7.470;2024-03-29T13:03:46;10.10;1.00
27439;DHT22;14887;51.252;7.470;2024-03-29T13:06:12;9.90;1.00
27439;DHT22;14887;51.252;7.470;2024-03-29T13:08:37;9.80;1.00
27439;DHT22;14887;51.252;7.470;2024-03-29T13:11:03;9.70;1.00
27439;DHT22;14887;51.252;7.470;2024-03-29T13:13:29;9.70;1.00
27439;DHT22;14887;51.252;7.470;2024-03-29T13:15:54;9.70;1.00
27439;DHT22;14887;51.252;7.470;2024-03-29T13:18:20;9.70;1.00
27439;DHT22;14887;51.252;7.470;2024-03-29T13:20:46;9.70;1.00
27439;DHT22;14887;51.252;7.470;2024-03-29T13:23:12;9.60;1.00
27439;DHT22;14887;51.252;7.470;2024-03-29T13:25:38;9.60;1.00
27439;DHT22;14887;51.252;7.470;2024-03-29T13:28:04;9.60;1.00
27439;DHT22;14887;51.252;7.470;2024-03-29T13:30:31;9.60;1.00
27439;DHT22;14887;51.252;7.470;2024-03-29T13:32:56;9.70;1.00
27439;DHT22;14887;51.252;7.470;2024-03-29T13:35:22;9.60;1.00
27439;DHT22;14887;51.252;7.470;2024-03-29T13:37:51;9.60;1.00
27439;DHT22;14887;51.252;7.470;2024-03-29T13:40:20;9.70;1.00
27439;DHT22;14887;51.252;7.470;2024-03-29T13:42:46;9.80;1.00
27439;DHT22;14887;51.252;7.470;2024-03-29T13:45:11;10.10;1.00
27439;DHT22;14887;51.252;7.470;2024-03-29T13:47:38;10.60;1.00
27439;DHT22;14887;51.252;7.470;2024-03-29T13:50:05;10.80;1.00
27439;DHT22;14887;51.252;7.470;2024-03-29T13:52:31;11.00;1.00
27439;DHT22;14887;51.252;7.470;2024-03-29T13:54:56;10.80;1.00
27439;DHT22;14887;51.252;7.470;2024-03-29T13:57:22;10.80;1.00
27439;DHT22;14887;51.252;7.470;2024-03-29T13:59:48;10.70;1.00
27439;DHT22;14887;51.252;7.470;2024-03-29T14:02:17;10.60;1.00
27439;DHT22;14887;51.252;7.470;2024-03-29T14:04:44;10.80;1.00
27439;DHT22;14887;51.252;7.470;2024-03-29T14:07:10;11.00;1.00
27439;DHT22;14887;51.252;7.470;2024-03-29T14:09:43;11.10;1.00
27439;DHT22;14887;51.252;7.470;2024-03-29T14:12:10;11.40;1.00
27439;DHT22;14887;51.252;7.470;2024-03-29T14:14:35;11.70;1.00
27439;DHT22;14887;51.252;7.470;2024-03-29T14:17:01;11.90;99.90
27439;DHT22;14887;51.252;7.470;2024-03-29T14:19:33;12.00;99.90
27439;DHT22;14887;51.252;7.470;2024-03-29T14:22:00;12.00;1.00
27439;DHT22;14887;51.252;7.470;2024-03-29T14:24:25;11.80;99.90
27439;DHT22;14887;51.252;7.470;2024-03-29T14:26:52;11.70;99.90
27439;DHT22;14887;51.252;7.470;2024-03-29T14:29:18;11.70;99.90
27439;DHT22;14887;51.252;7.470;2024-03-29T14:31:50;11.50;57.20
27439;DHT22;14887;51.252;7.470;2024-03-29T14:34:16;11.50;99.90
27439;DHT22;14887;51.252;7.470;2024-03-29T14:36:43;11.50;99.90
27439;DHT22;14887;51.252;7.470;2024-03-29T14:39:08;11.60;1.00
27439;DHT22;14887;51.252;7.470;2024-03-29T14:41:35;11.50;58.80
27439;DHT22;14887;51.252;7.470;2024-03-29T14:44:02;11.80;99.90
27439;DHT22;14887;51.252;7.470;2024-03-29T14:46:28;11.90;1.00
27439;DHT22;14887;51.252;7.470;2024-03-29T14:48:54;11.80;1.00
27439;DHT22;14887;51.252;7.470;2024-03-29T14:51:19;11.70;3.00
27439;DHT22;14887;51.252;7.470;2024-03-29T14:53:46;11.90;99.90
27439;DHT22;14887;51.252;7.470;2024-03-29T14:56:18;11.80;1.00
27439;DHT22;14887;51.252;7.470;2024-03-29T14:58:44;11.60;1.00
27439;DHT22;14887;51.252;7.470;2024-03-29T15:01:10;11.60;1.00
27439;DHT22;14887;51.252;7.470;2024-03-29T15:03:35;11.70;1.00
27439;DHT22;14887;51.252;7.470;2024-03-29T15:06:01;11.50;1.00
27439;DHT22;14887;51.252;7.470;2024-03-29T15:08:27;11.40;1.00
27439;DHT22;14887;51.252;7.470;2024-03-29T15:11:00;11.40;38.10
27439;DHT22;14887;51.252;7.470;2024-03-29T15:13:26;11.40;99.90
27439;DHT22;14887;51.252;7.470;2024-03-29T15:15:56;11.50;1.00
27439;DHT22;14887;51.252;7.470;2024-03-29T15:18:22;11.50;1.00
27439;DHT22;14887;51.252;7.470;2024-03-29T15:20:59;11.80;91.50
27439;DHT22;14887;51.252;7.470;2024-03-29T15:23:27;12.10;99.90
27439;DHT22;14887;51.252;7.470;2024-03-29T15:25:57;12.30;99.90
27439;DHT22;14887;51.252;7.470;2024-03-29T15:28:25;12.50;99.90
27439;DHT22;14887;51.252;7.470;2024-03-29T15:31:14;13.00;1.00
27439;DHT22;14887;51.252;7.470;2024-03-29T15:33:42;14.00;99.90
27439;DHT22;14887;51.252;7.470;2024-03-29T15:36:07;14.30;1.00
27439;DHT22;14887;51.252;7.470;2024-03-29T15:38:36;14.20;99.90
27439;DHT22;14887;51.252;7.470;2024-03-29T15:41:01;14.10;1.00
27439;DHT22;14887;51.252;7.470;2024-03-29T15:43:30;13.50;99.90
27439;DHT22;14887;51.252;7.470;2024-03-29T15:45:55;12.80;1.00
27439;DHT22;14887;51.252;7.470;2024-03-29T15:48:25;12.50;99.90
27439;DHT22;14887;51.252;7.470;2024-03-29T15:50:51;12.30;99.90
27439;DHT22;14887;51.252;7.470;2024-03-29T15:53:17;12.10;1.00
27439;DHT22;14887;51.252;7.470;2024-03-29T15:55:42;11.90;74.40
27439;DHT22;14887;51.252;7.470;2024-03-29T15:58:09;11.60;99.90
27439;DHT22;14887;51.252;7.470;2024-03-29T16:00:34;11.40;1.00
27439;DHT22;14887;51.252;7.470;2024-03-29T16:03:03;11.20;1.00